KHRL/HRL METAR and TAF weather

Enter ICAO airport designator
Station Type Date Time Source
KHRL METAR 2022/12/10 01:52 UTC NOAA

KHRL 100152Z 13007KT 10SM CLR 22/22 A3003 RMK AO2 SLP167 T02220217


Station Type Date Time Source
KHRL Decoded METAR 2022/12/10 01:52 UTC NOAA

RIO GRANDE VALLEY, TX, United States (KHRL) 26-13N 97-39W 10M
Dec 09, 2022 - 08:52 PM EST / 2022.12.10 0152 UTC
Wind: from the SE (130 degrees) at 8 MPH (7 KT):0
Visibility: 10 mile(s):0
Sky conditions: clear
Temperature: 72.0 F (22.2 C)
Dew Point: 71.1 F (21.7 C)
Relative Humidity: 96%
Pressure (altimeter): 30.03 in. Hg (1016 hPa)
ob: KHRL 100152Z 13007KT 10SM CLR 22/22 A3003 RMK AO2 SLP167 T02220217
cycle: 2

Station Type Date Time Source
KHRL TAF 2022/12/09 19:03 UTC NOAA

TAF
AMD KHRL 091900Z 0919/1018 13012KT P6SM BKN035 BKN045
FM100000 15010KT P6SM FEW020
FM100900 15008KT P6SM BKN017

Example: see airport list